Time;durP1;ratioP1;P1;durP2;ratioP2;P2;SDS_P1;SDS_P2;PMS_P1;PMS_P2;Temp;Humidity;BMP_temperature;BMP_pressure;BME280_temperature;BME280_humidity;BME280_pressure;Samples;Min_cycle;Max_cycle;Signal;HPM_P1;HPM_P2
2024/01/21 00:02:14;;;;;;;49.65;21.45;;;-2.40;99.90;;;;;;5051817;28;20048;-74
2024/01/21 00:04:40;;;;;;;52.65;21.83;;;-2.40;99.90;;;;;;5066635;28;20079;-75
2024/01/21 00:07:06;;;;;;;44.17;19.23;;;-2.40;99.90;;;;;;5062870;28;20020;-73
2024/01/21 00:09:31;;;;;;;41.92;20.92;;;-2.40;99.90;;;;;;5057061;28;20022;-74
2024/01/21 00:11:57;;;;;;;45.35;19.88;;;-2.30;99.90;;;;;;5070942;28;20021;-74
2024/01/21 00:14:23;;;;;;;41.35;21.17;;;-2.30;99.90;;;;;;5070194;28;20497;-78
2024/01/21 00:16:48;;;;;;;79.70;40.58;;;-2.30;99.90;;;;;;5070800;28;20024;-78
2024/01/21 00:19:14;;;;;;;68.43;26.73;;;-2.30;99.90;;;;;;5071189;28;20070;-73
2024/01/21 00:21:40;;;;;;;43.90;22.10;;;-2.30;99.90;;;;;;5071583;28;20029;-74
2024/01/21 00:24:05;;;;;;;46.03;21.52;;;-2.30;99.90;;;;;;5054049;28;20459;-73
2024/01/21 00:26:31;;;;;;;43.15;22.17;;;-2.30;99.90;;;;;;5060503;28;20466;-81
2024/01/21 00:29:00;;;;;;;46.30;22.15;;;-2.30;99.90;;;;;;5069934;28;20012;-79
2024/01/21 00:31:27;;;;;;;41.63;21.15;;;-2.30;99.90;;;;;;5069294;28;20461;-73
2024/01/21 00:33:53;;;;;;;44.92;21.08;;;-2.30;99.90;;;;;;5068351;28;20020;-75
2024/01/21 00:36:18;;;;;;;41.35;21.60;;;-2.30;99.90;;;;;;5060942;28;20170;-75
2024/01/21 00:38:44;;;;;;;43.22;21.58;;;-2.30;99.90;;;;;;5069084;28;20027;-74
2024/01/21 00:41:14;;;;;;;80.90;38.10;;;-2.30;99.90;;;;;;5071552;28;20115;-79
2024/01/21 00:43:40;;;;;;;122.57;49.60;;;-2.30;99.90;;;;;;5060035;28;20024;-78
2024/01/21 00:46:06;;;;;;;51.28;24.08;;;-2.30;99.90;;;;;;5075125;28;20020;-78
2024/01/21 00:48:34;;;;;;;64.65;28.98;;;-2.30;99.90;;;;;;5074815;28;20028;-74
2024/01/21 00:51:00;;;;;;;51.22;22.35;;;-2.40;99.90;;;;;;5063285;28;20036;-77
2024/01/21 00:53:26;;;;;;;46.08;23.17;;;-2.30;99.90;;;;;;5067329;28;20017;-78
2024/01/21 00:55:51;;;;;;;50.63;24.40;;;-2.40;99.90;;;;;;5074938;28;20025;-78
2024/01/21 00:58:17;;;;;;;50.92;23.98;;;-2.40;99.90;;;;;;5074588;28;20389;-74
2024/01/21 01:00:43;;;;;;;43.42;22.00;;;-2.40;99.90;;;;;;5074863;28;20385;-74
2024/01/21 01:03:08;;;;;;;48.88;24.33;;;-2.40;99.90;;;;;;5061508;28;20074;-78
2024/01/21 01:05:34;;;;;;;44.75;23.58;;;-2.40;99.90;;;;;;5063520;28;20049;-74
2024/01/21 01:08:00;;;;;;;89.80;40.88;;;-2.40;99.90;;;;;;5059259;28;20470;-74
2024/01/21 01:10:25;;;;;;;60.75;27.60;;;-2.40;99.90;;;;;;5073364;28;20504;-79
2024/01/21 01:12:51;;;;;;;65.50;26.70;;;-2.40;99.90;;;;;;5066083;28;20048;-79
2024/01/21 01:15:18;;;;;;;47.22;23.90;;;-2.40;99.90;;;;;;5065533;28;20020;-74
2024/01/21 01:17:44;;;;;;;52.28;25.48;;;-2.40;99.90;;;;;;5072967;28;20060;-78
2024/01/21 01:20:10;;;;;;;47.70;23.58;;;-2.40;99.90;;;;;;5074697;28;20135;-78
2024/01/21 01:22:36;;;;;;;47.30;23.20;;;-2.40;99.90;;;;;;5072039;28;20020;-74
2024/01/21 01:25:02;;;;;;;49.85;22.58;;;-2.40;99.90;;;;;;5072835;28;20112;-74
2024/01/21 01:27:29;;;;;;;48.85;23.95;;;-2.40;99.90;;;;;;5071506;28;20043;-79
2024/01/21 01:29:55;;;;;;;43.00;24.70;;;-2.40;99.90;;;;;;5072376;28;20028;-78
2024/01/21 01:32:21;;;;;;;87.68;40.70;;;-2.40;99.90;;;;;;5072092;28;20103;-79
2024/01/21 01:34:49;;;;;;;67.03;31.50;;;-2.30;99.90;;;;;;5073978;28;20096;-78
2024/01/21 01:37:15;;;;;;;46.92;22.67;;;-2.30;99.90;;;;;;5073618;28;20013;-79
2024/01/21 01:39:41;;;;;;;55.03;24.92;;;-2.30;99.90;;;;;;5073847;28;20037;-79
2024/01/21 01:42:06;;;;;;;52.92;24.02;;;-2.30;99.90;;;;;;5055940;28;20138;-74
2024/01/21 01:44:32;;;;;;;52.03;22.45;;;-2.30;99.90;;;;;;5053583;28;20103;-74
2024/01/21 01:46:58;;;;;;;47.25;22.27;;;-2.30;99.90;;;;;;5059308;28;20052;-74
2024/01/21 01:49:23;;;;;;;35.08;20.30;;;-2.30;99.90;;;;;;5072893;28;20059;-78
2024/01/21 01:51:49;;;;;;;49.30;22.80;;;-2.30;99.90;;;;;;5059458;28;20048;-74
2024/01/21 01:54:23;;;;;;;58.35;29.83;;;-2.30;99.90;;;;;;5072307;28;20024;-78
2024/01/21 01:56:49;;;;;;;61.03;27.30;;;-2.20;99.90;;;;;;5066969;28;20021;-79
2024/01/21 01:59:18;;;;;;;61.42;28.55;;;-2.20;99.90;;;;;;5053977;28;20029;-78
2024/01/21 02:01:44;;;;;;;56.75;25.98;;;-2.30;99.90;;;;;;5053540;28;20151;-78
2024/01/21 02:04:11;;;;;;;55.22;24.95;;;-2.20;99.90;;;;;;5054042;28;20025;-78
2024/01/21 02:06:38;;;;;;;49.15;24.27;;;-2.20;99.90;;;;;;5042307;28;20017;-78
2024/01/21 02:09:04;;;;;;;43.00;23.77;;;-2.20;99.90;;;;;;5054489;28;20372;-78
2024/01/21 02:11:29;;;;;;;45.78;24.38;;;-2.20;99.90;;;;;;5052697;28;20477;-74
2024/01/21 02:13:55;;;;;;;49.35;24.60;;;-2.20;99.90;;;;;;5054203;28;20048;-78
2024/01/21 02:16:21;;;;;;;58.00;25.42;;;-2.20;99.90;;;;;;5059149;28;20021;-74
2024/01/21 02:18:49;;;;;;;49.47;26.00;;;-2.20;99.90;;;;;;5066698;28;20044;-74
2024/01/21 02:21:15;;;;;;;57.20;26.58;;;-2.20;99.90;;;;;;5052629;28;20016;-74
2024/01/21 02:23:42;;;;;;;49.33;23.05;;;-2.20;99.90;;;;;;5053587;28;20077;-74
2024/01/21 02:26:08;;;;;;;45.63;22.63;;;-2.20;99.90;;;;;;5052227;28;20033;-74
2024/01/21 02:28:33;;;;;;;43.88;21.85;;;-2.10;99.90;;;;;;5053663;28;20024;-74
2024/01/21 02:30:59;;;;;;;42.95;21.98;;;-2.10;99.90;;;;;;5054096;28;20028;-79
2024/01/21 02:33:26;;;;;;;49.42;22.25;;;-2.10;99.90;;;;;;5052878;28;20024;-74
2024/01/21 02:35:51;;;;;;;39.60;21.55;;;-2.10;99.90;;;;;;5054121;28;20029;-79
2024/01/21 02:38:17;;;;;;;49.97;23.95;;;-2.10;99.90;;;;;;5053330;28;20017;-79
2024/01/21 02:40:43;;;;;;;46.17;23.02;;;-2.10;99.90;;;;;;5053746;28;20122;-79
2024/01/21 02:43:08;;;;;;;46.53;23.45;;;-2.10;99.90;;;;;;5054435;28;20461;-75
2024/01/21 02:45:37;;;;;;;46.92;24.60;;;-2.10;99.90;;;;;;5053578;28;20486;-79
2024/01/21 02:48:03;;;;;;;59.72;24.50;;;-2.10;99.90;;;;;;5048105;28;20036;-75
2024/01/21 02:50:29;;;;;;;49.65;26.45;;;-2.10;99.90;;;;;;5049856;28;20029;-73
2024/01/21 02:52:54;;;;;;;51.85;23.70;;;-2.00;99.90;;;;;;5053271;28;20067;-79
2024/01/21 02:55:20;;;;;;;45.25;23.63;;;-2.00;99.90;;;;;;5053225;28;20547;-79
2024/01/21 02:57:46;;;;;;;47.67;23.63;;;-2.00;99.90;;;;;;5070036;28;20062;-74
2024/01/21 03:00:12;;;;;;;54.75;25.08;;;-2.00;99.90;;;;;;5072413;28;20028;-74
2024/01/21 03:02:38;;;;;;;52.55;25.70;;;-2.00;99.90;;;;;;5072226;28;20024;-74
2024/01/21 03:05:04;;;;;;;50.53;25.55;;;-2.00;99.90;;;;;;5070878;28;20031;-78
2024/01/21 03:07:29;;;;;;;46.50;23.92;;;-2.00;99.90;;;;;;5072200;28;20099;-74
2024/01/21 03:09:55;;;;;;;48.97;25.55;;;-2.00;99.90;;;;;;5060813;28;20108;-78
2024/01/21 03:12:20;;;;;;;48.42;24.02;;;-1.90;99.90;;;;;;5069758;28;20058;-77
2024/01/21 03:14:46;;;;;;;51.15;23.77;;;-1.90;99.90;;;;;;5071337;28;20020;-78
2024/01/21 03:17:12;;;;;;;51.55;24.92;;;-2.00;99.90;;;;;;5064400;28;20094;-78
2024/01/21 03:19:37;;;;;;;52.50;25.33;;;-1.90;99.90;;;;;;5052701;28;20115;-78
2024/01/21 03:22:03;;;;;;;47.75;23.25;;;-1.90;99.90;;;;;;5069999;28;20024;-77
2024/01/21 03:24:31;;;;;;;46.58;23.73;;;-1.90;99.90;;;;;;5070576;28;20021;-80
2024/01/21 03:26:56;;;;;;;52.70;26.23;;;-1.90;99.90;;;;;;5064526;28;20024;-78
2024/01/21 03:29:23;;;;;;;50.53;23.88;;;-1.80;99.90;;;;;;5053498;28;20025;-74
2024/01/21 03:31:48;;;;;;;48.33;24.95;;;-1.90;99.90;;;;;;5056720;28;20067;-78
2024/01/21 03:34:14;;;;;;;50.10;26.40;;;-1.90;99.90;;;;;;5055060;28;20021;-78
2024/01/21 03:36:40;;;;;;;52.83;24.98;;;-1.90;99.90;;;;;;5055620;28;20368;-74
2024/01/21 03:39:05;;;;;;;47.00;25.73;;;-1.90;99.90;;;;;;5054572;28;20433;-73
2024/01/21 03:41:31;;;;;;;52.40;24.02;;;-1.90;99.90;;;;;;5056181;28;20024;-78
2024/01/21 03:43:57;;;;;;;48.13;23.63;;;-1.90;99.90;;;;;;5053233;28;20403;-74
2024/01/21 03:46:24;;;;;;;54.40;25.00;;;-1.90;99.90;;;;;;5055275;28;20021;-78
2024/01/21 03:48:49;;;;;;;51.17;25.60;;;-1.90;99.90;;;;;;5048613;28;20036;-78
2024/01/21 03:51:15;;;;;;;52.35;22.83;;;-1.90;99.90;;;;;;5054465;28;20024;-78
2024/01/21 03:53:41;;;;;;;47.35;24.52;;;-1.80;99.90;;;;;;5061652;28;20029;-78
2024/01/21 03:56:08;;;;;;;50.83;23.80;;;-1.80;99.90;;;;;;5052687;28;20104;-74
2024/01/21 03:58:34;;;;;;;45.67;22.33;;;-1.80;99.90;;;;;;5052821;28;20024;-78
2024/01/21 04:01:01;;;;;;;45.10;24.00;;;-1.80;99.90;;;;;;5052529;28;20033;-78
2024/01/21 04:03:27;;;;;;;53.03;24.33;;;-1.80;99.90;;;;;;5051465;28;20028;-78
2024/01/21 04:05:52;;;;;;;53.83;25.88;;;-1.80;99.90;;;;;;5056273;28;20021;-78
2024/01/21 04:08:18;;;;;;;57.13;25.05;;;-1.80;99.90;;;;;;5071035;28;20028;-78
2024/01/21 04:10:44;;;;;;;54.13;27.02;;;-1.80;99.90;;;;;;5071134;28;20090;-74
2024/01/21 04:13:09;;;;;;;53.90;28.10;;;-1.80;99.90;;;;;;5071906;28;20028;-78
2024/01/21 04:15:35;;;;;;;51.08;25.38;;;-1.80;99.90;;;;;;5062098;28;20025;-78
2024/01/21 04:18:01;;;;;;;53.53;26.52;;;-1.80;99.90;;;;;;5072416;28;20432;-78
2024/01/21 04:20:27;;;;;;;130.80;51.92;;;-1.80;99.90;;;;;;5073928;28;20440;-73
2024/01/21 04:22:52;;;;;;;196.73;71.55;;;-1.80;99.90;;;;;;5074799;28;20032;-79
2024/01/21 04:25:18;;;;;;;590.78;229.48;;;-1.80;99.90;;;;;;5071662;28;20021;-79
2024/01/21 04:27:44;;;;;;;652.70;268.70;;;-1.80;99.90;;;;;;5072804;28;20016;-73
2024/01/21 04:30:10;;;;;;;990.78;416.15;;;-1.80;99.90;;;;;;5071872;28;20040;-78
2024/01/21 04:32:35;;;;;;;1306.22;518.53;;;-1.80;99.90;;;;;;5072748;28;20043;-78
2024/01/21 04:35:01;;;;;;;276.27;93.35;;;-1.80;99.90;;;;;;5070234;28;20032;-74
2024/01/21 04:37:27;;;;;;;68.47;30.58;;;-1.80;99.90;;;;;;5073734;28;20025;-79
2024/01/21 04:39:53;;;;;;;54.58;27.35;;;-1.90;99.90;;;;;;5071016;28;20073;-78
2024/01/21 04:42:19;;;;;;;53.05;25.65;;;-1.90;99.90;;;;;;5073663;28;20106;-78
2024/01/21 04:44:44;;;;;;;85.28;32.40;;;-1.90;99.90;;;;;;5069056;28;20363;-74
2024/01/21 04:47:10;;;;;;;62.38;27.25;;;-1.90;99.90;;;;;;5052855;28;20032;-73
2024/01/21 04:49:36;;;;;;;127.10;41.00;;;-2.00;99.90;;;;;;5066708;28;20356;-74
2024/01/21 04:52:02;;;;;;;109.03;38.55;;;-1.90;99.90;;;;;;5055577;28;20052;-78
2024/01/21 04:54:28;;;;;;;528.67;196.70;;;-1.90;99.90;;;;;;5055265;28;20023;-78
2024/01/21 04:56:53;;;;;;;1461.13;586.38;;;-1.90;99.90;;;;;;5055682;28;20025;-78
2024/01/21 04:59:19;;;;;;;1521.50;584.72;;;-1.90;99.90;;;;;;5053752;28;20060;-77
2024/01/21 05:01:48;;;;;;;793.13;318.65;;;-1.90;99.90;;;;;;5064118;28;20035;-78
2024/01/21 05:04:14;;;;;;;527.85;195.10;;;-1.80;99.90;;;;;;5073382;28;20545;-78
2024/01/21 05:06:39;;;;;;;167.93;58.20;;;-1.80;99.90;;;;;;5058435;28;20117;-77
2024/01/21 05:09:05;;;;;;;135.13;44.13;;;-1.80;99.90;;;;;;5053903;28;20071;-78
2024/01/21 05:11:31;;;;;;;100.63;40.15;;;-1.70;99.90;;;;;;5055171;28;20092;-73
2024/01/21 05:13:56;;;;;;;608.97;245.93;;;-1.70;99.90;;;;;;5055473;28;20041;-78
2024/01/21 05:16:22;;;;;;;526.65;185.88;;;-1.70;99.90;;;;;;5055585;28;20029;-74
2024/01/21 05:18:48;;;;;;;337.15;104.93;;;-1.70;99.90;;;;;;5071570;28;20052;-79
2024/01/21 05:21:20;;;;;;;177.32;56.83;;;-1.70;99.90;;;;;;5062685;28;20049;-78
2024/01/21 05:23:48;;;;;;;101.50;43.20;;;-1.70;99.90;;;;;;5064192;28;20051;-78
2024/01/21 05:26:14;;;;;;;85.55;33.63;;;-1.70;99.90;;;;;;5056684;28;20021;-74
2024/01/21 05:28:40;;;;;;;87.22;35.83;;;-1.70;99.90;;;;;;5071017;28;20494;-78
2024/01/21 05:31:06;;;;;;;113.10;42.80;;;-1.70;99.90;;;;;;5073328;28;20098;-74
2024/01/21 05:33:32;;;;;;;106.25;41.33;;;-1.70;99.90;;;;;;5072337;28;20016;-78
2024/01/21 05:35:58;;;;;;;134.40;47.47;;;-1.70;99.90;;;;;;5074237;28;20078;-78
2024/01/21 05:38:23;;;;;;;167.35;54.33;;;-1.70;99.90;;;;;;5072088;28;20087;-74
2024/01/21 05:40:49;;;;;;;85.47;32.88;;;-1.70;99.90;;;;;;5072660;28;20474;-78
2024/01/21 05:43:14;;;;;;;105.57;35.83;;;-1.70;99.90;;;;;;5072299;28;20008;-75
2024/01/21 05:45:40;;;;;;;155.93;46.60;;;-1.70;99.90;;;;;;5061644;28;20025;-74
2024/01/21 05:48:07;;;;;;;154.77;53.78;;;-1.70;99.90;;;;;;5054135;28;20024;-78
2024/01/21 05:50:33;;;;;;;182.40;64.32;;;-1.70;99.90;;;;;;5054114;28;20017;-73
2024/01/21 05:52:58;;;;;;;395.00;125.47;;;-1.70;99.90;;;;;;5070704;28;20023;-78
2024/01/21 05:55:24;;;;;;;303.35;95.28;;;-1.60;99.90;;;;;;5070234;28;20026;-74
2024/01/21 05:57:50;;;;;;;263.42;78.93;;;-1.70;99.90;;;;;;5069908;28;20039;-78
2024/01/21 06:00:16;;;;;;;75.93;31.67;;;-1.70;99.90;;;;;;5061105;28;20033;-74
2024/01/21 06:02:44;;;;;;;60.40;25.92;;;-1.70;99.90;;;;;;5054555;28;20458;-73
2024/01/21 06:05:10;;;;;;;59.17;25.55;;;-1.70;99.90;;;;;;5069520;28;20497;-78
2024/01/21 06:07:36;;;;;;;232.95;90.70;;;-1.70;99.90;;;;;;5070493;28;20052;-74
2024/01/21 06:10:01;;;;;;;321.80;111.90;;;-1.70;99.90;;;;;;5073637;28;20052;-78
2024/01/21 06:12:27;;;;;;;372.45;130.75;;;-1.70;99.90;;;;;;5072719;28;20059;-74
2024/01/21 06:14:53;;;;;;;211.00;81.22;;;-1.60;99.90;;;;;;5073327;28;20074;-79
2024/01/21 06:17:18;;;;;;;64.90;27.55;;;-1.60;99.90;;;;;;5071695;28;20023;-74
2024/01/21 06:19:44;;;;;;;77.60;32.78;;;-1.60;99.90;;;;;;5073184;28;20055;-79
2024/01/21 06:22:10;;;;;;;97.00;41.17;;;-1.60;99.90;;;;;;5071357;28;20069;-79
2024/01/21 06:24:36;;;;;;;117.50;45.38;;;-1.60;99.90;;;;;;5071652;28;20024;-76
2024/01/21 06:27:03;;;;;;;93.82;38.10;;;-1.60;99.90;;;;;;5059609;28;20017;-74
2024/01/21 06:29:29;;;;;;;74.40;27.98;;;-1.60;99.90;;;;;;5064650;28;20036;-74
2024/01/21 06:31:55;;;;;;;107.97;34.75;;;-1.60;99.90;;;;;;5071431;28;20021;-74
2024/01/21 06:34:21;;;;;;;90.50;33.25;;;-1.60;99.90;;;;;;5072600;28;20028;-74
2024/01/21 06:36:46;;;;;;;96.07;37.28;;;-1.50;99.90;;;;;;5071296;28;20027;-73
2024/01/21 06:39:12;;;;;;;105.45;42.47;;;-1.50;99.90;;;;;;5070815;28;20397;-78
2024/01/21 06:41:38;;;;;;;95.57;38.03;;;-1.50;99.90;;;;;;5068255;28;20032;-78
2024/01/21 06:44:04;;;;;;;74.00;34.22;;;-1.50;99.90;;;;;;5072216;28;20416;-78
2024/01/21 06:46:29;;;;;;;60.75;27.35;;;-1.40;99.90;;;;;;5055801;28;20469;-73
2024/01/21 06:48:55;;;;;;;65.03;29.17;;;-1.50;99.90;;;;;;5071610;28;20070;-78
2024/01/21 06:51:42;;;;;;;54.75;25.35;;;-1.50;99.90;;;;;;5057557;28;20854;-74
2024/01/21 06:54:09;;;;;;;67.03;29.73;;;-1.40;99.90;;;;;;5072467;28;20044;-78
2024/01/21 06:56:34;;;;;;;56.20;25.60;;;-1.40;99.90;;;;;;5072431;28;20032;-73
2024/01/21 06:59:00;;;;;;;53.72;26.08;;;-1.40;99.90;;;;;;5062811;28;20078;-78
2024/01/21 07:01:26;;;;;;;91.07;34.78;;;-1.40;99.90;;;;;;5054450;28;20029;-78
2024/01/21 07:03:52;;;;;;;108.25;38.08;;;-1.40;99.90;;;;;;5054610;28;20108;-78
2024/01/21 07:06:18;;;;;;;162.80;53.70;;;-1.40;99.90;;;;;;5063572;28;20070;-78
2024/01/21 07:08:43;;;;;;;215.85;81.47;;;-1.40;99.90;;;;;;5066126;28;20474;-78
2024/01/21 07:11:10;;;;;;;142.20;49.13;;;-1.40;99.90;;;;;;5063415;28;20386;-75
2024/01/21 07:13:36;;;;;;;89.43;35.13;;;-1.40;99.90;;;;;;5056959;28;20029;-79
2024/01/21 07:16:05;;;;;;;64.63;26.02;;;-1.40;99.90;;;;;;5058763;28;20021;-79
2024/01/21 07:18:30;;;;;;;61.65;26.45;;;-1.40;99.90;;;;;;5059414;28;20139;-78
2024/01/21 07:20:56;;;;;;;70.53;26.50;;;-1.30;99.90;;;;;;5056475;28;20593;-79
2024/01/21 07:23:22;;;;;;;53.63;22.35;;;-1.30;99.90;;;;;;5059632;28;20496;-74
2024/01/21 07:25:48;;;;;;;96.43;37.35;;;-1.30;99.90;;;;;;5056343;28;20036;-74
2024/01/21 07:28:15;;;;;;;119.15;45.88;;;-1.30;99.90;;;;;;5058633;28;20099;-79
2024/01/21 07:30:41;;;;;;;106.20;39.63;;;-1.20;99.90;;;;;;5054427;28;20056;-79
2024/01/21 07:33:06;;;;;;;78.13;27.88;;;-1.20;99.90;;;;;;5058977;28;20104;-79
2024/01/21 07:35:32;;;;;;;42.78;21.52;;;-1.10;99.90;;;;;;5055669;28;20064;-79
2024/01/21 07:37:58;;;;;;;44.63;22.60;;;-1.10;99.90;;;;;;5067103;28;20112;-75
2024/01/21 07:40:24;;;;;;;57.63;26.02;;;-1.10;99.90;;;;;;5058344;28;20134;-74
2024/01/21 07:42:49;;;;;;;65.45;24.52;;;-1.00;99.90;;;;;;5062416;28;20029;-74
2024/01/21 07:45:15;;;;;;;76.35;30.58;;;-0.90;99.90;;;;;;5060374;28;20016;-75
2024/01/21 07:47:41;;;;;;;64.38;25.98;;;-0.90;99.90;;;;;;5063473;28;20033;-74
2024/01/21 07:50:07;;;;;;;67.13;27.00;;;-0.90;99.90;;;;;;5053071;28;20063;-74
2024/01/21 07:52:33;;;;;;;80.50;34.45;;;-0.90;99.90;;;;;;5048306;28;20021;-74
2024/01/21 07:54:58;;;;;;;142.85;52.40;;;-0.80;99.90;;;;;;5055496;28;20465;-74
2024/01/21 07:57:24;;;;;;;142.02;51.67;;;-0.70;99.90;;;;;;5057168;28;20108;-75
2024/01/21 07:59:49;;;;;;;89.63;33.35;;;-0.70;99.90;;;;;;5057944;28;20135;-74
2024/01/21 08:02:16;;;;;;;96.47;33.22;;;-0.60;99.90;;;;;;5062876;28;20028;-79
2024/01/21 08:04:42;;;;;;;113.75;40.78;;;-0.60;99.90;;;;;;5058247;28;20024;-79
2024/01/21 08:07:08;;;;;;;156.48;52.03;;;-0.50;99.90;;;;;;5052827;28;20017;-79
2024/01/21 08:09:34;;;;;;;98.75;36.67;;;-0.50;99.90;;;;;;5065329;28;20033;-74
2024/01/21 08:12:00;;;;;;;57.38;22.40;;;-0.40;99.90;;;;;;5051989;28;20033;-74
2024/01/21 08:14:25;;;;;;;72.18;29.42;;;-0.30;99.90;;;;;;5053341;28;20029;-74
2024/01/21 08:16:51;;;;;;;50.20;22.80;;;-0.30;99.90;;;;;;5065801;28;20052;-79
2024/01/21 08:19:19;;;;;;;57.58;22.88;;;-0.20;99.90;;;;;;5062728;28;20057;-78
2024/01/21 08:21:46;;;;;;;65.43;29.48;;;-0.20;99.90;;;;;;5059039;28;20025;-78
2024/01/21 08:24:11;;;;;;;46.45;22.70;;;-0.10;99.90;;;;;;5055749;28;20029;-78
2024/01/21 08:26:37;;;;;;;55.33;26.55;;;-0.10;99.90;;;;;;5065711;28;20023;-74
2024/01/21 08:29:03;;;;;;;56.75;26.38;;;0.00;99.90;;;;;;5056215;28;20024;-74
2024/01/21 08:31:29;;;;;;;45.67;22.38;;;0.00;99.90;;;;;;5066987;28;20021;-74
2024/01/21 08:33:54;;;;;;;49.22;21.55;;;0.00;99.90;;;;;;5073962;28;20024;-74
2024/01/21 08:36:20;;;;;;;42.00;19.45;;;0.10;99.90;;;;;;5066612;28;20120;-75
2024/01/21 08:38:45;;;;;;;39.63;18.85;;;0.10;99.90;;;;;;5059433;28;20096;-74
2024/01/21 08:41:11;;;;;;;69.55;28.83;;;0.20;99.90;;;;;;5063558;28;20086;-74
2024/01/21 08:43:37;;;;;;;59.35;27.48;;;0.20;99.90;;;;;;5060099;28;20021;-74
2024/01/21 08:46:03;;;;;;;72.80;32.13;;;0.20;99.90;;;;;;5056969;28;20025;-74
2024/01/21 08:48:29;;;;;;;103.97;44.33;;;0.20;99.90;;;;;;5064674;28;20028;-72
2024/01/21 08:50:55;;;;;;;65.40;27.75;;;0.30;99.90;;;;;;5060506;28;20449;-77
2024/01/21 08:53:20;;;;;;;49.70;24.25;;;0.30;99.90;;;;;;5051791;28;20040;-72
2024/01/21 08:55:47;;;;;;;64.40;24.13;;;0.30;99.90;;;;;;5055065;28;20029;-78
2024/01/21 08:58:12;;;;;;;60.70;25.35;;;0.30;99.90;;;;;;5060789;28;20052;-78
2024/01/21 09:00:38;;;;;;;97.60;35.75;;;0.30;99.90;;;;;;5061866;28;20059;-78
2024/01/21 09:03:05;;;;;;;48.05;20.02;;;0.30;99.90;;;;;;5058516;28;20017;-73
2024/01/21 09:05:30;;;;;;;48.95;18.80;;;0.30;99.90;;;;;;5057273;28;20025;-77
2024/01/21 09:07:56;;;;;;;47.15;20.60;;;0.40;99.90;;;;;;5056135;28;20017;-78
2024/01/21 09:10:21;;;;;;;56.80;26.88;;;0.50;99.90;;;;;;5055562;28;20013;-78
2024/01/21 09:12:47;;;;;;;128.10;53.08;;;0.60;99.90;;;;;;5056186;28;20376;-78
2024/01/21 09:15:13;;;;;;;173.73;63.67;;;0.60;99.90;;;;;;5055244;28;20025;-78
2024/01/21 09:17:39;;;;;;;71.63;27.52;;;0.70;99.90;;;;;;5052476;28;20033;-73
2024/01/21 09:20:05;;;;;;;42.40;17.33;;;0.60;99.70;;;;;;5057590;28;20482;-73
2024/01/21 09:22:30;;;;;;;55.50;20.95;;;0.70;98.50;;;;;;5071164;28;20108;-73
2024/01/21 09:24:56;;;;;;;31.80;16.20;;;0.80;98.50;;;;;;5059504;28;20107;-73
2024/01/21 09:27:23;;;;;;;44.55;21.13;;;0.90;98.50;;;;;;5054025;28;20021;-74
2024/01/21 09:29:48;;;;;;;49.28;20.45;;;0.90;97.10;;;;;;5062414;28;20120;-78
2024/01/21 09:32:14;;;;;;;44.20;20.38;;;0.90;96.10;;;;;;5052861;28;20174;-73
2024/01/21 09:34:40;;;;;;;71.32;33.40;;;1.00;95.10;;;;;;5059037;28;20033;-79
2024/01/21 09:37:06;;;;;;;100.53;42.40;;;1.00;93.70;;;;;;5059227;28;20021;-73
2024/01/21 09:39:32;;;;;;;46.65;20.10;;;1.00;92.90;;;;;;5063885;28;20124;-74
2024/01/21 09:41:58;;;;;;;47.83;19.80;;;1.00;92.10;;;;;;5058345;28;20148;-78
2024/01/21 09:44:28;;;;;;;51.95;19.92;;;1.00;91.90;;;;;;5056091;28;20027;-74
2024/01/21 09:46:59;;;;;;;48.78;22.58;;;1.00;91.30;;;;;;5061369;28;20477;-77
2024/01/21 09:49:26;;;;;;;37.55;17.17;;;1.00;91.60;;;;;;5062719;28;20021;-74
2024/01/21 09:51:52;;;;;;;41.05;19.83;;;1.00;91.50;;;;;;5062222;28;20446;-74
2024/01/21 09:54:22;;;;;;;32.17;15.88;;;1.10;92.10;;;;;;5060469;28;20383;-78
2024/01/21 09:56:48;;;;;;;52.40;25.83;;;1.20;90.60;;;;;;5064194;28;20116;-74
2024/01/21 09:59:15;;;;;;;93.40;42.83;;;1.20;90.30;;;;;;5053589;28;20100;-78
2024/01/21 10:01:41;;;;;;;78.03;36.05;;;1.20;89.90;;;;;;5052822;28;20028;-79
2024/01/21 10:04:08;;;;;;;50.78;21.35;;;1.40;90.40;;;;;;5051258;28;20049;-79
2024/01/21 10:06:35;;;;;;;43.22;18.45;;;1.40;89.70;;;;;;5053267;28;20017;-79
2024/01/21 10:09:14;;;;;;;43.38;17.77;;;1.30;87.30;;;;;;5053642;28;20048;-79
2024/01/21 10:11:40;;;;;;;39.33;16.65;;;1.40;86.30;;;;;;5049095;28;20478;-79
2024/01/21 10:14:06;;;;;;;38.13;16.38;;;1.30;85.80;;;;;;5053988;28;20016;-78
2024/01/21 10:16:33;;;;;;;43.00;16.17;;;1.40;85.40;;;;;;5054752;28;20057;-79
2024/01/21 10:19:00;;;;;;;33.85;16.73;;;1.40;85.40;;;;;;5054352;28;20051;-74
2024/01/21 10:21:25;;;;;;;188.35;76.28;;;1.50;86.00;;;;;;5050959;28;20088;-74
2024/01/21 10:23:51;;;;;;;104.32;46.33;;;1.50;85.70;;;;;;5052230;28;20124;-74
2024/01/21 10:26:18;;;;;;;49.67;21.00;;;1.60;85.50;;;;;;5053208;28;20040;-74
2024/01/21 10:28:44;;;;;;;35.97;15.15;;;1.70;84.60;;;;;;5051795;28;20021;-78
2024/01/21 10:31:09;;;;;;;31.52;13.23;;;1.80;85.30;;;;;;5055283;28;20041;-74
2024/01/21 10:33:35;;;;;;;28.70;14.63;;;1.90;84.60;;;;;;5055223;28;20479;-74
2024/01/21 10:36:02;;;;;;;34.35;14.68;;;1.90;83.40;;;;;;5048776;28;20060;-77
2024/01/21 10:38:41;;;;;;;26.60;13.85;;;1.90;82.50;;;;;;5065373;28;20017;-73
2024/01/21 10:41:08;;;;;;;30.95;12.68;;;1.80;81.30;;;;;;5051462;28;20041;-74
2024/01/21 10:43:36;;;;;;;37.85;16.55;;;1.90;81.30;;;;;;5061543;28;20028;-79
2024/01/21 10:46:04;;;;;;;100.47;37.53;;;1.90;81.40;;;;;;5052383;28;20033;-79
2024/01/21 10:48:30;;;;;;;163.52;59.80;;;2.10;82.30;;;;;;5061281;28;20099;-79
2024/01/21 10:50:56;;;;;;;96.05;40.03;;;2.20;81.80;;;;;;5050042;28;20029;-79
2024/01/21 10:53:23;;;;;;;67.53;24.83;;;2.30;81.80;;;;;;5045798;28;20020;-80
2024/01/21 10:55:51;;;;;;;28.58;15.45;;;2.40;80.60;;;;;;5049194;28;20470;-79
2024/01/21 10:58:17;;;;;;;176.43;64.85;;;2.40;79.80;;;;;;5051892;28;20046;-80
2024/01/21 11:00:44;;;;;;;49.72;19.38;;;2.40;79.50;;;;;;5051739;28;20028;-78
2024/01/21 11:03:29;;;;;;;62.50;22.58;;;2.40;78.90;;;;;;5051122;28;20190;-80
2024/01/21 11:06:08;;;;;;;136.38;47.13;;;2.20;78.60;;;;;;5051546;28;20390;-78
2024/01/21 11:08:36;;;;;;;37.75;20.35;;;2.20;79.30;;;;;;5052321;28;20017;-78
2024/01/21 11:11:02;;;;;;;53.25;25.42;;;2.20;80.00;;;;;;5051273;28;20072;-78
2024/01/21 11:13:51;;;;;;;45.53;16.45;;;2.30;80.50;;;;;;5052613;28;20025;-79
2024/01/21 11:16:25;;;;;;;33.50;16.13;;;2.20;79.50;;;;;;5040903;28;20025;-78
2024/01/21 11:18:51;;;;;;;129.27;45.95;;;2.20;79.50;;;;;;5051348;28;20044;-79
2024/01/21 11:21:20;;;;;;;34.67;14.75;;;2.30;79.90;;;;;;5051072;28;20498;-80
2024/01/21 11:24:09;;;;;;;28.90;12.98;;;2.30;80.20;;;;;;5048154;28;20025;-80
2024/01/21 11:26:37;;;;;;;97.35;35.65;;;2.50;80.30;;;;;;5047387;28;20044;-78
2024/01/21 11:29:21;;;;;;;41.25;18.83;;;2.40;79.20;;;;;;5052769;28;20079;-79
2024/01/21 11:32:16;;;;;;;185.90;65.88;;;2.50;79.00;;;;;;5053572;28;20032;-79
2024/01/21 11:34:44;;;;;;;192.13;78.32;;;2.60;78.90;;;;;;5061330;28;20025;-78
2024/01/21 11:37:13;;;;;;;51.35;20.60;;;2.80;78.90;;;;;;5050723;28;20363;-79
2024/01/21 11:39:40;;;;;;;48.42;17.73;;;2.70;77.80;;;;;;5051734;28;20137;-79
2024/01/21 11:42:06;;;;;;;138.43;55.70;;;2.70;77.40;;;;;;5048589;28;20040;-79
2024/01/21 11:44:33;;;;;;;34.40;15.57;;;2.80;77.70;;;;;;5046970;28;20017;-80
2024/01/21 11:47:02;;;;;;;47.35;25.52;;;2.80;77.50;;;;;;5053696;28;20524;-80
2024/01/21 11:49:32;;;;;;;63.97;29.52;;;2.90;76.90;;;;;;5048943;28;20112;-81
2024/01/21 11:52:00;;;;;;;43.22;22.10;;;2.90;76.70;;;;;;5050817;28;20055;-80
2024/01/21 11:54:26;;;;;;;43.92;19.70;;;3.00;77.40;;;;;;5040842;28;20020;-80
2024/01/21 11:56:55;;;;;;;28.80;13.23;;;3.00;77.00;;;;;;5050572;28;20528;-80
2024/01/21 11:59:21;;;;;;;27.88;12.52;;;3.00;76.40;;;;;;5047052;28;20112;-80
2024/01/21 12:01:48;;;;;;;48.22;23.90;;;3.00;75.90;;;;;;5055986;28;20024;-81
2024/01/21 12:04:14;;;;;;;45.72;18.80;;;3.10;76.10;;;;;;5055589;28;20092;-80
2024/01/21 12:06:45;;;;;;;29.88;15.25;;;3.20;76.30;;;;;;5057930;28;20080;-80
2024/01/21 12:09:11;;;;;;;28.67;14.43;;;3.20;75.90;;;;;;5051574;28;20112;-79
2024/01/21 12:11:39;;;;;;;26.35;12.73;;;3.20;75.90;;;;;;5050049;28;20052;-79
2024/01/21 12:14:11;;;;;;;25.17;11.57;;;3.10;75.30;;;;;;5050522;28;20052;-79
2024/01/21 12:16:37;;;;;;;25.02;12.35;;;3.10;75.40;;;;;;5053701;28;20024;-79
2024/01/21 12:19:04;;;;;;;25.95;12.13;;;3.00;75.20;;;;;;5049876;28;20402;-78
2024/01/21 12:21:31;;;;;;;35.67;17.70;;;2.90;75.60;;;;;;5041166;28;20433;-75
2024/01/21 12:23:58;;;;;;;35.72;15.68;;;2.80;76.00;;;;;;5051265;28;20025;-75
2024/01/21 12:26:24;;;;;;;36.40;16.33;;;2.90;76.50;;;;;;5051127;28;20025;-75